Time;durP1;ratioP1;P1;durP2;ratioP2;P2;SDS_P1;SDS_P2;PMS_P1;PMS_P2;Temp;Humidity;BMP_temperature;BMP_pressure;BME280_temperature;BME280_humidity;BME280_pressure;Samples;Min_cycle;Max_cycle;Signal;HPM_P1;HPM_P2
2022/09/06 00:01:23;;;;;;;4.05;2.63;;;21.40;92.20;;;;;;5049176;28;20127;-70
2022/09/06 00:03:49;;;;;;;3.42;2.10;;;22.40;92.50;;;;;;5031335;28;20164;-70
2022/09/06 00:06:17;;;;;;;2.75;1.90;;;21.40;92.30;;;;;;5028920;28;20459;-70
2022/09/06 00:08:44;;;;;;;2.22;2.00;;;21.40;92.60;;;;;;5037218;28;20494;-70
2022/09/06 00:11:10;;;;;;;3.20;2.40;;;21.40;92.60;;;;;;5037081;28;20394;-72
2022/09/06 00:13:37;;;;;;;2.78;2.50;;;21.30;92.50;;;;;;5038324;28;20064;-73
2022/09/06 00:16:11;;;;;;;4.05;2.10;;;21.50;92.60;;;;;;5034827;28;20036;-73
2022/09/06 00:18:37;;;;;;;3.38;2.40;;;21.50;92.90;;;;;;5031686;28;20497;-70
2022/09/06 00:21:11;;;;;;;5.38;2.70;;;21.40;92.50;;;;;;5030417;28;20041;-71
2022/09/06 00:23:37;;;;;;;4.20;2.60;;;21.30;92.70;;;;;;5039541;28;20062;-71
2022/09/06 00:26:04;;;;;;;3.22;2.55;;;21.40;92.50;;;;;;5049696;28;20009;-71
2022/09/06 00:28:30;;;;;;;3.28;2.83;;;21.40;92.60;;;;;;5048862;28;20108;-70
2022/09/06 00:30:56;;;;;;;5.30;2.75;;;21.40;92.70;;;;;;5049696;28;20017;-71
2022/09/06 00:33:22;;;;;;;4.70;2.90;;;21.50;92.60;;;;;;5048850;28;20049;-70
2022/09/06 00:35:48;;;;;;;4.25;2.50;;;22.30;93.00;;;;;;5048847;28;20029;-71
2022/09/06 00:38:13;;;;;;;5.57;3.20;;;21.40;93.00;;;;;;5048949;28;20061;-71
2022/09/06 00:40:39;;;;;;;5.50;3.38;;;21.30;93.70;;;;;;5049253;28;20028;-71
2022/09/06 00:43:05;;;;;;;4.15;2.72;;;21.30;93.50;;;;;;5049410;28;20072;-71
2022/09/06 00:45:32;;;;;;;3.95;3.10;;;22.00;93.80;;;;;;5048975;28;20090;-71
2022/09/06 00:47:59;;;;;;;6.18;2.90;;;21.10;93.70;;;;;;5047228;28;20021;-72
2022/09/06 00:50:27;;;;;;;5.13;2.83;;;21.10;99.90;;;;;;5037383;28;20036;-72
2022/09/06 00:52:53;;;;;;;5.57;2.65;;;21.10;94.30;;;;;;5049243;28;20013;-72
2022/09/06 00:55:20;;;;;;;4.72;2.92;;;21.00;94.40;;;;;;5048475;28;20036;-72
2022/09/06 00:57:49;;;;;;;2.88;2.55;;;21.00;94.60;;;;;;5049091;28;20013;-73
2022/09/06 01:00:16;;;;;;;4.28;2.70;;;21.10;94.80;;;;;;5048641;28;20025;-73
2022/09/06 01:02:42;;;;;;;3.88;3.42;;;20.80;95.20;;;;;;5048417;28;20047;-73
2022/09/06 01:05:09;;;;;;;4.05;2.88;;;20.80;95.50;;;;;;5048924;28;20044;-73
2022/09/06 01:07:52;;;;;;;4.82;3.30;;;20.70;96.00;;;;;;5048809;28;20056;-72
2022/09/06 01:10:30;;;;;;;2.97;2.70;;;20.80;95.80;;;;;;5048554;28;20021;-73
2022/09/06 01:13:02;;;;;;;5.43;3.30;;;21.00;97.00;;;;;;5048669;28;20070;-72
2022/09/06 01:15:39;;;;;;;3.45;3.15;;;20.80;95.60;;;;;;5048392;28;20132;-73
2022/09/06 01:18:22;;;;;;;4.32;3.53;;;20.70;96.10;;;;;;5043809;28;20167;-73
2022/09/06 01:21:08;;;;;;;3.38;2.83;;;20.70;97.00;;;;;;5021325;28;20049;-73
2022/09/06 01:23:53;;;;;;;4.22;3.40;;;20.70;95.90;;;;;;5024255;28;20025;-73
2022/09/06 01:26:46;;;;;;;5.03;4.03;;;20.60;96.00;;;;;;5048044;28;20067;-73
2022/09/06 01:29:46;;;;;;;7.53;4.30;;;20.60;96.90;;;;;;5040135;28;20021;-73
2022/09/06 01:32:35;;;;;;;5.95;3.72;;;20.50;97.10;;;;;;5046609;28;20349;-73
2022/09/06 01:35:07;;;;;;;4.22;3.83;;;20.50;97.20;;;;;;5048311;28;20124;-73
2022/09/06 01:37:33;;;;;;;5.85;4.80;;;20.30;98.00;;;;;;5048193;28;20043;-73
2022/09/06 01:39:59;;;;;;;5.15;4.40;;;20.30;97.80;;;;;;5048434;28;20021;-73
2022/09/06 01:42:29;;;;;;;6.75;4.63;;;20.30;97.90;;;;;;5047444;28;20036;-74
2022/09/06 01:45:08;;;;;;;5.70;5.20;;;20.20;98.40;;;;;;5036991;28;20025;-75
2022/09/06 01:48:01;;;;;;;8.63;5.95;;;20.20;98.20;;;;;;5027414;28;20036;-75
2022/09/06 01:50:55;;;;;;;8.48;6.20;;;20.00;98.90;;;;;;5024345;28;20034;-75
2022/09/06 01:54:00;;;;;;;6.68;5.80;;;19.80;99.20;;;;;;5021789;28;20117;-74
2022/09/06 01:56:37;;;;;;;;;;;19.70;99.60;;;;;;5025254;28;20057;-75
2022/09/06 01:59:08;;;;;;;6.97;5.90;;;19.60;99.60;;;;;;5028250;28;19982;-75
2022/09/06 02:01:42;;;;;;;8.98;6.38;;;20.10;99.90;;;;;;5027540;28;20080;-75
2022/09/06 02:04:10;;;;;;;7.63;5.68;;;19.50;99.90;;;;;;5028046;28;20418;-76
2022/09/06 02:06:44;;;;;;;8.10;6.72;;;19.60;99.90;;;;;;5028321;28;20013;-76
2022/09/06 02:09:10;;;;;;;;;;;19.60;99.90;;;;;;5028227;28;20047;-76
2022/09/06 02:11:41;;;;;;;8.20;5.75;;;19.40;99.90;;;;;;5029754;28;19927;-77
2022/09/06 02:14:16;;;;;;;7.45;6.05;;;19.60;99.90;;;;;;5033859;28;20033;-76
2022/09/06 02:16:44;;;;;;;7.25;6.63;;;19.50;99.90;;;;;;5025081;28;20105;-76
2022/09/06 02:19:38;;;;;;;8.10;7.30;;;19.60;99.90;;;;;;5021265;28;20029;-76
2022/09/06 02:22:08;;;;;;;7.72;7.03;;;19.50;99.90;;;;;;5028125;28;20021;-77
2022/09/06 02:24:36;;;;;;;8.43;7.18;;;19.50;99.90;;;;;;5039586;28;20022;-77
2022/09/06 02:27:02;;;;;;;9.35;7.90;;;19.30;99.90;;;;;;5047760;28;20028;-76
2022/09/06 02:29:27;;;;;;;9.35;7.65;;;19.30;99.90;;;;;;5046846;28;20033;-77
2022/09/06 02:32:11;;;;;;;9.95;8.02;;;19.40;99.90;;;;;;5047768;28;20028;-76
2022/09/06 02:34:42;;;;;;;9.43;7.65;;;19.30;99.90;;;;;;5047885;28;20490;-76
2022/09/06 02:37:09;;;;;;;7.63;6.93;;;19.30;99.90;;;;;;5047352;28;20081;-78
2022/09/06 02:39:35;;;;;;;8.88;7.75;;;19.20;99.90;;;;;;5049312;28;20032;-76
2022/09/06 02:42:01;;;;;;;8.68;7.78;;;19.10;99.90;;;;;;5051535;28;20037;-76
2022/09/06 02:44:26;;;;;;;9.15;8.27;;;19.00;99.90;;;;;;5050586;28;20066;-76
2022/09/06 02:46:52;;;;;;;8.02;7.22;;;19.10;99.90;;;;;;5045073;28;20036;-76
2022/09/06 02:49:17;;;;;;;8.20;7.07;;;19.70;99.90;;;;;;5050862;28;20039;-76
2022/09/06 02:51:43;;;;;;;7.72;7.03;;;19.60;99.90;;;;;;5051648;28;20036;-76
2022/09/06 02:54:08;;;;;;;8.60;6.65;;;19.20;99.90;;;;;;5051027;28;20033;-76
2022/09/06 02:56:35;;;;;;;7.50;6.80;;;19.20;99.90;;;;;;5039238;28;20482;-76
2022/09/06 02:59:04;;;;;;;8.80;7.05;;;19.00;99.90;;;;;;5048377;28;20033;-76
2022/09/06 03:01:30;;;;;;;6.72;6.15;;;19.20;99.90;;;;;;5049527;28;20351;-76
2022/09/06 03:03:56;;;;;;;7.95;6.30;;;20.20;99.90;;;;;;5051207;28;20025;-76
2022/09/06 03:06:22;;;;;;;8.38;6.65;;;19.30;99.90;;;;;;5037459;28;20033;-76
2022/09/06 03:08:47;;;;;;;8.93;7.20;;;19.20;99.90;;;;;;5014304;28;20040;-76
2022/09/06 03:11:13;;;;;;;11.20;7.03;;;19.40;99.90;;;;;;5046976;28;20110;-78
2022/09/06 03:13:39;;;;;;;7.88;6.95;;;19.30;99.90;;;;;;5050324;28;20064;-76
2022/09/06 03:16:04;;;;;;;7.00;6.22;;;19.30;99.90;;;;;;5050766;28;20037;-76
2022/09/06 03:18:30;;;;;;;7.95;6.90;;;19.40;99.90;;;;;;5050452;28;20021;-76
2022/09/06 03:20:57;;;;;;;7.97;7.18;;;19.30;99.90;;;;;;5042646;28;20025;-76
2022/09/06 03:23:25;;;;;;;9.20;8.40;;;20.10;99.90;;;;;;5036607;28;20027;-76
2022/09/06 03:25:50;;;;;;;8.75;7.82;;;19.70;99.90;;;;;;5051052;28;20067;-76
2022/09/06 03:28:17;;;;;;;9.05;8.15;;;19.50;99.90;;;;;;5049673;28;20401;-76
2022/09/06 03:30:47;;;;;;;8.40;7.60;;;19.20;99.90;;;;;;5050808;28;20079;-76
2022/09/06 03:33:12;;;;;;;8.40;7.53;;;19.30;99.90;;;;;;5049868;28;20029;-76
2022/09/06 03:35:38;;;;;;;8.65;7.82;;;20.10;99.90;;;;;;5050206;28;20040;-76
2022/09/06 03:38:04;;;;;;;8.30;7.50;;;19.10;99.90;;;;;;5041247;28;20025;-76
2022/09/06 03:40:30;;;;;;;8.68;7.80;;;19.30;99.90;;;;;;5049820;28;20039;-76
2022/09/06 03:42:56;;;;;;;10.35;8.02;;;19.40;99.90;;;;;;5049992;28;20017;-76
2022/09/06 03:45:21;;;;;;;8.38;7.57;;;19.30;99.90;;;;;;5049884;28;20024;-76
2022/09/06 03:47:47;;;;;;;9.13;8.30;;;20.20;99.90;;;;;;5050442;28;20493;-76
2022/09/06 03:50:13;;;;;;;8.77;7.55;;;19.30;99.90;;;;;;5049519;28;20029;-76
2022/09/06 03:52:39;;;;;;;8.50;7.72;;;19.30;99.90;;;;;;5048811;28;20086;-76
2022/09/06 03:55:06;;;;;;;8.57;7.88;;;19.40;99.90;;;;;;5050136;28;20398;-77
2022/09/06 03:57:31;;;;;;;8.93;8.02;;;19.30;99.90;;;;;;5049354;28;20029;-76
2022/09/06 03:59:57;;;;;;;10.00;8.98;;;19.30;99.90;;;;;;5049748;28;20323;-77
2022/09/06 04:02:22;;;;;;;9.55;8.73;;;19.20;99.90;;;;;;5042848;28;20394;-76
2022/09/06 04:04:48;;;;;;;15.35;10.57;;;19.20;99.90;;;;;;5028876;28;20040;-76
2022/09/06 04:07:13;;;;;;;10.35;9.32;;;19.20;99.90;;;;;;5028922;28;20112;-76
2022/09/06 04:09:39;;;;;;;11.43;10.43;;;19.00;99.90;;;;;;5021392;28;20103;-76
2022/09/06 04:12:04;;;;;;;10.07;9.02;;;19.90;99.90;;;;;;5029362;28;20055;-76
2022/09/06 04:14:30;;;;;;;11.20;10.07;;;19.10;99.90;;;;;;5029265;28;20047;-76
2022/09/06 04:16:55;;;;;;;10.18;9.18;;;19.20;99.90;;;;;;5029970;28;20021;-76
2022/09/06 04:19:22;;;;;;;10.43;9.52;;;19.10;99.90;;;;;;5029016;28;20438;-76
2022/09/06 04:21:48;;;;;;;9.75;8.95;;;19.10;99.90;;;;;;5029945;28;20109;-76
2022/09/06 04:24:13;;;;;;;10.80;9.77;;;19.00;99.90;;;;;;5038464;28;20104;-76
2022/09/06 04:26:39;;;;;;;11.02;9.93;;;19.70;99.90;;;;;;5049182;28;20017;-76
2022/09/06 04:29:04;;;;;;;10.63;9.63;;;18.90;99.90;;;;;;5049723;28;20025;-77
2022/09/06 04:31:30;;;;;;;9.70;8.73;;;19.20;99.90;;;;;;5049004;28;20028;-77
2022/09/06 04:33:55;;;;;;;10.43;9.52;;;19.00;99.90;;;;;;5049303;28;20021;-77
2022/09/06 04:36:21;;;;;;;10.88;9.85;;;19.10;99.90;;;;;;5040125;28;20033;-77
2022/09/06 04:38:46;;;;;;;9.52;8.65;;;20.30;99.90;;;;;;5044984;28;20024;-76
2022/09/06 04:41:15;;;;;;;9.48;8.25;;;19.10;99.90;;;;;;5038061;28;20037;-76
2022/09/06 04:43:41;;;;;;;9.57;8.68;;;19.40;99.90;;;;;;5032409;28;20029;-76
2022/09/06 04:46:16;;;;;;;10.30;9.30;;;19.50;99.90;;;;;;5049107;28;20327;-76
2022/09/06 04:48:41;;;;;;;11.95;10.75;;;19.20;99.90;;;;;;5043906;28;20420;-75
2022/09/06 04:51:07;;;;;;;10.13;9.32;;;19.10;99.90;;;;;;5049108;28;20170;-76
2022/09/06 04:53:32;;;;;;;10.32;9.43;;;18.90;99.90;;;;;;5032996;28;20398;-76
2022/09/06 04:55:58;;;;;;;9.93;8.98;;;19.20;99.90;;;;;;5045882;28;20044;-76
2022/09/06 04:58:24;;;;;;;11.50;9.57;;;18.90;99.90;;;;;;5048582;28;20017;-76
2022/09/06 05:00:50;;;;;;;11.35;10.35;;;19.10;99.90;;;;;;5048950;28;20079;-77
2022/09/06 05:03:16;;;;;;;9.82;8.82;;;19.00;99.90;;;;;;5047866;28;20099;-77
2022/09/06 05:05:41;;;;;;;10.75;9.75;;;19.00;99.90;;;;;;5047589;28;20521;-76
2022/09/06 05:08:07;;;;;;;11.13;8.77;;;19.30;99.90;;;;;;5028855;28;20022;-76
2022/09/06 05:10:32;;;;;;;10.77;9.68;;;19.00;99.90;;;;;;5026842;28;20312;-76
2022/09/06 05:12:58;;;;;;;10.35;9.40;;;18.90;99.90;;;;;;5028656;28;20100;-76
2022/09/06 05:15:26;;;;;;;9.82;8.93;;;18.70;99.90;;;;;;5028322;28;20033;-77
2022/09/06 05:17:52;;;;;;;10.10;9.10;;;18.80;99.90;;;;;;5028754;28;20021;-76
2022/09/06 05:20:17;;;;;;;10.27;9.27;;;18.70;99.90;;;;;;5028362;28;20045;-77
2022/09/06 05:22:52;;;;;;;11.27;10.15;;;18.90;99.90;;;;;;5027738;28;20502;-76
2022/09/06 05:25:17;;;;;;;11.48;10.38;;;19.90;99.90;;;;;;5045971;28;20112;-76
2022/09/06 05:27:43;;;;;;;10.90;9.70;;;18.80;99.90;;;;;;5048672;28;20115;-76
2022/09/06 05:30:09;;;;;;;10.75;9.75;;;19.30;99.90;;;;;;5048293;28;20036;-76
2022/09/06 05:32:35;;;;;;;11.20;10.10;;;18.70;99.90;;;;;;5048751;28;20021;-76
2022/09/06 05:35:00;;;;;;;11.05;10.00;;;18.80;99.90;;;;;;5047462;28;20036;-76
2022/09/06 05:37:26;;;;;;;12.57;11.32;;;19.80;99.90;;;;;;5028141;28;20067;-77
2022/09/06 05:39:51;;;;;;;12.40;11.30;;;18.70;99.90;;;;;;5026222;28;20108;-76
2022/09/06 05:42:17;;;;;;;11.63;10.55;;;18.60;99.90;;;;;;5026510;28;20056;-76
2022/09/06 05:44:42;;;;;;;12.82;11.45;;;18.90;99.90;;;;;;5027618;28;20478;-77
2022/09/06 05:47:08;;;;;;;12.57;11.52;;;18.80;99.90;;;;;;5032872;28;20021;-76
2022/09/06 05:49:33;;;;;;;12.98;11.68;;;18.80;99.90;;;;;;5028112;28;20021;-76
2022/09/06 05:51:59;;;;;;;12.65;11.38;;;18.80;99.90;;;;;;5027667;28;20040;-77
2022/09/06 05:54:25;;;;;;;11.90;10.93;;;18.80;99.90;;;;;;5027268;28;20502;-77
2022/09/06 05:56:50;;;;;;;11.85;10.68;;;18.80;99.90;;;;;;5028178;28;20036;-77
2022/09/06 05:59:16;;;;;;;13.00;11.70;;;18.90;99.90;;;;;;5035485;28;20117;-77
2022/09/06 06:01:49;;;;;;;13.05;11.70;;;20.10;99.90;;;;;;5028159;28;20025;-76
2022/09/06 06:04:17;;;;;;;14.13;12.82;;;18.90;99.90;;;;;;5027957;28;20036;-73
2022/09/06 06:06:43;;;;;;;12.50;11.43;;;18.80;99.90;;;;;;5028415;28;20029;-73
2022/09/06 06:09:09;;;;;;;13.07;11.75;;;18.70;99.90;;;;;;5032356;28;20419;-73
2022/09/06 06:11:35;;;;;;;14.15;12.82;;;18.80;99.90;;;;;;5028788;28;20070;-74
2022/09/06 06:14:02;;;;;;;15.23;13.55;;;18.70;99.90;;;;;;5039736;28;20052;-73
2022/09/06 06:16:28;;;;;;;13.23;12.10;;;18.80;99.90;;;;;;5036706;28;20128;-73
2022/09/06 06:18:53;;;;;;;15.98;14.57;;;18.70;99.90;;;;;;5041384;28;20473;-73
2022/09/06 06:21:20;;;;;;;14.88;13.45;;;18.60;99.90;;;;;;5031886;28;20045;-73
2022/09/06 06:23:49;;;;;;;14.63;13.30;;;18.60;99.90;;;;;;5022985;28;20129;-74
2022/09/06 06:26:15;;;;;;;15.73;14.43;;;18.80;99.90;;;;;;5041617;28;20470;-73
2022/09/06 06:28:41;;;;;;;15.30;14.00;;;18.70;99.90;;;;;;5052044;28;20021;-74
2022/09/06 06:31:08;;;;;;;15.85;14.35;;;18.60;99.90;;;;;;5051799;28;20021;-74
2022/09/06 06:33:35;;;;;;;17.15;15.55;;;18.60;99.90;;;;;;5037915;28;20068;-73
2022/09/06 06:36:04;;;;;;;15.93;14.45;;;19.10;99.90;;;;;;5051447;28;20048;-73
2022/09/06 06:38:34;;;;;;;15.45;13.93;;;19.90;99.90;;;;;;5050060;28;20033;-74
2022/09/06 06:41:00;;;;;;;18.55;16.45;;;18.70;99.90;;;;;;5051864;28;20033;-73
2022/09/06 06:43:27;;;;;;;16.67;15.07;;;18.90;99.90;;;;;;5051471;28;20108;-74
2022/09/06 06:45:53;;;;;;;15.95;14.52;;;18.70;99.90;;;;;;5051754;28;20040;-73
2022/09/06 06:48:19;;;;;;;16.52;14.82;;;18.80;99.90;;;;;;5044009;28;20025;-74
2022/09/06 06:50:45;;;;;;;16.40;14.77;;;19.70;99.90;;;;;;5044700;28;20032;-73
2022/09/06 06:53:10;;;;;;;16.23;14.73;;;19.00;99.90;;;;;;5035211;28;20033;-73
2022/09/06 06:55:36;;;;;;;17.38;15.73;;;18.90;99.90;;;;;;5041773;28;20045;-74
2022/09/06 06:58:02;;;;;;;19.15;16.25;;;18.80;99.90;;;;;;5029443;28;20033;-73
2022/09/06 07:00:28;;;;;;;17.20;15.57;;;18.80;99.90;;;;;;5034294;28;20036;-74
2022/09/06 07:02:55;;;;;;;15.95;14.52;;;18.90;99.90;;;;;;5037365;28;20025;-74
2022/09/06 07:05:21;;;;;;;16.00;14.50;;;19.10;99.90;;;;;;5038162;28;20063;-73
2022/09/06 07:07:47;;;;;;;16.13;14.50;;;18.90;99.90;;;;;;5031971;28;20470;-74
2022/09/06 07:10:12;;;;;;;16.55;14.95;;;19.00;99.90;;;;;;5039241;28;20082;-73
2022/09/06 07:12:38;;;;;;;14.70;13.30;;;19.10;99.90;;;;;;5037983;28;20496;-73
2022/09/06 07:15:04;;;;;;;14.07;12.63;;;19.30;99.90;;;;;;5041121;28;20025;-73
2022/09/06 07:17:29;;;;;;;19.58;12.77;;;19.20;99.90;;;;;;5037513;28;20060;-73
2022/09/06 07:19:55;;;;;;;15.10;13.52;;;19.70;99.90;;;;;;5042879;28;20048;-73
2022/09/06 07:22:20;;;;;;;15.70;14.27;;;19.30;99.90;;;;;;5037112;28;20493;-73
2022/09/06 07:24:46;;;;;;;16.77;13.57;;;19.40;99.90;;;;;;5039247;28;20055;-73
2022/09/06 07:27:11;;;;;;;13.60;12.35;;;19.50;99.90;;;;;;5039886;28;20512;-74
2022/09/06 07:29:37;;;;;;;12.98;11.75;;;20.10;99.90;;;;;;5038729;28;20029;-73
2022/09/06 07:32:02;;;;;;;13.68;12.38;;;19.50;99.90;;;;;;5031958;28;20059;-74
2022/09/06 07:34:28;;;;;;;12.95;11.95;;;19.70;99.90;;;;;;5033184;28;20041;-73
2022/09/06 07:36:54;;;;;;;13.32;12.23;;;19.70;99.90;;;;;;5034310;28;20021;-73
2022/09/06 07:39:21;;;;;;;13.43;11.60;;;19.60;99.90;;;;;;5040708;28;20047;-74
2022/09/06 07:41:46;;;;;;;13.65;12.35;;;19.70;99.90;;;;;;5046782;28;20063;-73
2022/09/06 07:44:12;;;;;;;13.77;12.38;;;19.90;99.90;;;;;;5040917;28;20482;-74
2022/09/06 07:46:37;;;;;;;12.30;11.10;;;20.20;99.90;;;;;;5046182;28;20041;-74
2022/09/06 07:49:04;;;;;;;12.25;11.05;;;20.40;99.90;;;;;;5031206;28;20025;-73
2022/09/06 07:51:29;;;;;;;13.57;12.35;;;20.20;99.90;;;;;;5028255;28;20033;-73
2022/09/06 07:53:55;;;;;;;12.15;11.05;;;20.70;99.90;;;;;;5029614;28;20037;-73
2022/09/06 07:56:21;;;;;;;12.60;11.15;;;20.10;99.90;;;;;;5028277;28;20060;-74
2022/09/06 07:58:49;;;;;;;14.45;12.15;;;20.30;99.90;;;;;;5030443;28;20025;-73
2022/09/06 08:01:18;;;;;;;13.32;10.35;;;20.30;99.90;;;;;;5026950;28;20462;-74
2022/09/06 08:03:45;;;;;;;11.32;10.23;;;20.50;99.90;;;;;;5028062;28;20125;-74
2022/09/06 08:06:11;;;;;;;10.05;9.05;;;20.50;99.90;;;;;;5029346;28;20057;-73
2022/09/06 08:08:37;;;;;;;10.02;9.02;;;20.60;99.90;;;;;;5030032;28;20060;-73
2022/09/06 08:11:06;;;;;;;11.13;9.50;;;20.60;99.90;;;;;;5027966;28;21879;-74
2022/09/06 08:13:35;;;;;;;9.32;8.15;;;20.90;99.90;;;;;;5030582;28;20183;-73
2022/09/06 08:16:03;;;;;;;9.68;8.68;;;20.90;99.90;;;;;;5033938;28;20474;-74
2022/09/06 08:18:29;;;;;;;10.50;9.40;;;21.10;99.90;;;;;;5035242;28;21003;-73
2022/09/06 08:20:55;;;;;;;9.82;8.93;;;21.00;99.90;;;;;;5029148;28;20101;-73
2022/09/06 08:23:21;;;;;;;10.02;9.07;;;21.10;99.90;;;;;;5031253;28;20042;-73
2022/09/06 08:25:59;;;;;;;10.60;9.70;;;21.10;99.90;;;;;;5025759;28;20060;-74
2022/09/06 08:28:25;;;;;;;9.05;8.25;;;21.10;99.90;;;;;;5048860;28;20077;-74
2022/09/06 08:30:51;;;;;;;8.65;7.82;;;21.30;99.90;;;;;;5047466;28;20033;-74
2022/09/06 08:33:20;;;;;;;9.32;8.30;;;21.40;99.90;;;;;;5026591;28;20036;-74
2022/09/06 08:35:54;;;;;;;9.85;8.07;;;22.60;99.90;;;;;;5018231;28;20431;-73
2022/09/06 08:38:20;;;;;;;10.00;8.52;;;21.50;99.90;;;;;;5036636;28;20521;-74
2022/09/06 08:40:46;;;;;;;8.63;7.82;;;21.60;99.90;;;;;;5028605;28;20140;-73
2022/09/06 08:43:18;;;;;;;9.23;7.78;;;22.50;99.90;;;;;;5030628;28;20166;-73
2022/09/06 08:45:46;;;;;;;8.45;7.60;;;21.80;99.90;;;;;;5042576;28;20029;-72
2022/09/06 08:48:12;;;;;;;7.78;7.13;;;23.10;99.90;;;;;;5037797;28;20454;-72
2022/09/06 08:50:43;;;;;;;8.13;7.38;;;21.80;99.20;;;;;;5037361;28;20082;-72
2022/09/06 08:53:18;;;;;;;8.35;7.45;;;21.90;99.30;;;;;;5039888;28;20025;-72
2022/09/06 08:55:51;;;;;;;9.70;7.43;;;22.00;99.10;;;;;;5030999;28;20788;-72
2022/09/06 08:58:24;;;;;;;7.13;6.43;;;22.10;98.80;;;;;;5038159;28;20017;-72
2022/09/06 09:00:59;;;;;;;8.57;6.30;;;22.20;98.70;;;;;;5032655;28;20136;-73
2022/09/06 09:03:37;;;;;;;7.72;6.40;;;22.20;98.20;;;;;;5028667;28;20020;-72
2022/09/06 09:06:05;;;;;;;6.80;6.20;;;22.40;97.60;;;;;;5029647;28;20063;-72
2022/09/06 09:08:35;;;;;;;6.43;5.70;;;22.50;97.80;;;;;;5026882;28;20028;-72
2022/09/06 09:11:04;;;;;;;9.48;5.85;;;22.60;97.70;;;;;;5027458;28;20036;-72
2022/09/06 09:13:52;;;;;;;6.88;5.97;;;22.50;97.60;;;;;;5027191;28;20045;-72
2022/09/06 09:16:19;;;;;;;8.48;6.05;;;22.60;96.60;;;;;;5034823;28;20041;-71
2022/09/06 09:18:49;;;;;;;6.15;5.53;;;22.70;97.00;;;;;;5039879;28;20380;-71
2022/09/06 09:21:18;;;;;;;7.78;5.15;;;22.80;97.10;;;;;;5033732;28;20139;-71
2022/09/06 09:23:50;;;;;;;7.78;6.78;;;22.60;96.80;;;;;;5033084;28;20025;-71
2022/09/06 09:26:15;;;;;;;5.85;5.35;;;22.90;96.50;;;;;;5043421;28;20029;-71
2022/09/06 09:29:11;;;;;;;7.03;5.53;;;23.00;96.10;;;;;;5032680;28;20021;-71
2022/09/06 09:31:50;;;;;;;9.73;5.20;;;23.10;95.40;;;;;;5033234;28;20417;-72
2022/09/06 09:34:32;;;;;;;5.97;5.38;;;23.10;95.80;;;;;;5034226;28;20423;-71
2022/09/06 09:37:18;;;;;;;4.40;4.00;;;23.30;95.00;;;;;;5032091;28;20323;-72
2022/09/06 09:39:45;;;;;;;6.45;4.75;;;23.30;95.70;;;;;;5032713;28;20017;-71
2022/09/06 09:42:14;;;;;;;6.43;4.63;;;23.40;95.00;;;;;;5037081;28;20518;-71
2022/09/06 09:44:43;;;;;;;5.55;4.22;;;23.40;94.60;;;;;;5044657;28;20036;-71
2022/09/06 09:47:27;;;;;;;5.18;4.05;;;23.50;94.70;;;;;;5040240;28;20025;-71
2022/09/06 09:49:53;;;;;;;;;;;23.70;94.70;;;;;;5027570;28;20048;-71
2022/09/06 09:52:26;;;;;;;5.65;3.70;;;23.80;94.90;;;;;;5029732;28;19913;-70
2022/09/06 09:54:54;;;;;;;4.82;3.78;;;24.70;94.60;;;;;;5036272;28;20083;-71
2022/09/06 09:57:21;;;;;;;4.68;4.28;;;23.90;93.80;;;;;;5035686;28;20025;-71
2022/09/06 10:00:01;;;;;;;5.47;3.40;;;25.30;94.00;;;;;;5042521;28;20029;-71
2022/09/06 10:02:31;;;;;;;2.20;1.90;;;24.20;93.80;;;;;;5042196;28;20021;-71
2022/09/06 10:05:02;;;;;;;2.90;2.50;;;24.00;93.40;;;;;;5017905;28;20115;-71
2022/09/06 10:07:29;;;;;;;3.08;2.83;;;24.10;93.00;;;;;;5027128;28;20025;-71
2022/09/06 10:10:04;;;;;;;4.40;2.70;;;24.30;92.50;;;;;;5033444;28;20032;-71
2022/09/06 10:12:39;;;;;;;5.50;3.35;;;25.10;92.90;;;;;;5033262;28;20443;-71
2022/09/06 10:15:08;;;;;;;3.92;2.75;;;24.30;91.40;;;;;;5023164;28;20120;-72
2022/09/06 10:17:49;;;;;;;4.85;3.63;;;24.40;92.20;;;;;;5034173;28;20488;-71
2022/09/06 10:20:16;;;;;;;4.75;3.30;;;24.50;91.60;;;;;;5031348;28;20065;-71
2022/09/06 10:23:05;;;;;;;8.05;3.20;;;25.00;92.10;;;;;;5039777;28;20542;-71
2022/09/06 10:26:01;;;;;;;4.55;2.83;;;25.00;92.50;;;;;;5039897;28;20029;-72
2022/09/06 10:28:33;;;;;;;3.17;2.35;;;24.60;92.10;;;;;;5036509;28;20025;-71
2022/09/06 10:31:08;;;;;;;4.95;2.95;;;24.60;91.80;;;;;;5033532;28;20013;-72
2022/09/06 10:34:05;;;;;;;3.85;3.33;;;24.60;91.60;;;;;;5038051;28;20124;-71
2022/09/06 10:36:35;;;;;;;4.20;3.00;;;24.90;90.70;;;;;;5029324;28;20037;-72
2022/09/06 10:39:30;;;;;;;4.88;2.90;;;24.60;91.10;;;;;;5037598;28;20021;-72
2022/09/06 10:42:08;;;;;;;5.63;2.80;;;24.70;90.30;;;;;;5041091;28;20031;-72
2022/09/06 10:45:13;;;;;;;4.22;2.85;;;24.80;90.40;;;;;;5026031;28;20060;-71
2022/09/06 10:47:55;;;;;;;6.03;2.70;;;24.80;90.30;;;;;;5023460;28;20427;-71
2022/09/06 10:50:29;;;;;;;2.88;2.00;;;24.90;91.00;;;;;;5032482;28;20029;-71
2022/09/06 10:53:06;;;;;;;8.52;3.22;;;24.90;90.80;;;;;;5018059;28;20021;-71
2022/09/06 10:55:32;;;;;;;3.75;3.05;;;25.20;90.60;;;;;;5034601;28;20029;-71
2022/09/06 10:58:03;;;;;;;4.03;2.97;;;25.40;90.50;;;;;;5033697;28;20044;-71
2022/09/06 11:00:34;;;;;;;5.28;3.33;;;25.40;90.60;;;;;;5025605;28;20083;-71
2022/09/06 11:03:09;;;;;;;3.28;2.97;;;24.80;90.30;;;;;;5023028;28;20549;-71
2022/09/06 11:05:50;;;;;;;3.85;3.25;;;24.90;90.10;;;;;;5030513;28;20536;-71
2022/09/06 11:08:28;;;;;;;3.83;3.38;;;25.00;90.30;;;;;;5042038;28;20017;-71
2022/09/06 11:10:54;;;;;;;6.30;3.58;;;25.00;88.90;;;;;;5037257;28;20548;-71
2022/09/06 11:13:27;;;;;;;4.45;3.60;;;25.00;89.70;;;;;;5038804;28;20387;-71
2022/09/06 11:16:10;;;;;;;5.83;3.10;;;25.70;90.30;;;;;;5040931;28;20539;-71
2022/09/06 11:18:54;;;;;;;5.05;2.88;;;25.20;90.30;;;;;;5042666;28;20272;-71
2022/09/06 11:21:41;;;;;;;3.67;2.92;;;25.20;88.50;;;;;;5037970;28;20030;-71
2022/09/06 11:24:13;;;;;;;4.15;2.78;;;25.20;88.50;;;;;;5045640;28;20055;-71
2022/09/06 11:27:03;;;;;;;3.30;2.65;;;25.20;87.50;;;;;;5042500;28;20556;-71
2022/09/06 11:29:30;;;;;;;3.50;2.80;;;25.40;90.00;;;;;;5039235;28;20100;-70
2022/09/06 11:32:03;;;;;;;3.63;2.85;;;25.40;89.00;;;;;;5032678;28;20101;-71
2022/09/06 11:34:36;;;;;;;4.25;3.22;;;25.40;88.50;;;;;;5031712;28;20034;-72
2022/09/06 11:37:05;;;;;;;5.32;3.65;;;25.50;88.60;;;;;;5032818;28;20054;-71
2022/09/06 11:39:38;;;;;;;4.03;2.42;;;25.40;88.10;;;;;;5035850;28;20140;-71
2022/09/06 11:42:09;;;;;;;3.97;2.65;;;25.90;88.60;;;;;;5030334;28;20068;-70
2022/09/06 11:45:10;;;;;;;3.53;2.60;;;25.50;88.60;;;;;;5026276;28;20032;-71
2022/09/06 11:47:36;;;;;;;3.72;2.10;;;26.10;89.10;;;;;;5047575;28;20146;-71
2022/09/06 11:50:19;;;;;;;3.03;2.72;;;25.60;87.60;;;;;;5035747;28;20488;-72
2022/09/06 11:53:07;;;;;;;3.00;2.70;;;25.60;88.30;;;;;;5042789;28;20473;-71
2022/09/06 11:55:49;;;;;;;4.18;3.00;;;25.70;86.00;;;;;;5046576;28;20029;-71
2022/09/06 11:58:15;;;;;;;3.05;2.08;;;25.80;87.60;;;;;;5044273;28;20010;-72
2022/09/06 12:00:41;;;;;;;2.97;2.35;;;27.30;87.40;;;;;;5030804;28;20132;-72
2022/09/06 12:03:45;;;;;;;2.97;2.05;;;26.70;87.00;;;;;;5028650;28;20083;-71
2022/09/06 12:06:16;;;;;;;2.15;1.90;;;25.90;85.40;;;;;;5027596;28;20045;-71
2022/09/06 12:08:42;;;;;;;5.05;4.13;;;26.10;85.30;;;;;;5025530;28;20040;-71
2022/09/06 12:11:40;;;;;;;4.30;3.53;;;27.00;87.10;;;;;;5027965;28;20025;-71
2022/09/06 12:14:25;;;;;;;4.53;3.47;;;26.10;85.40;;;;;;5029109;28;20035;-72
2022/09/06 12:16:59;;;;;;;6.82;3.35;;;26.20;86.30;;;;;;5040080;28;20056;-71
2022/09/06 12:19:43;;;;;;;3.03;2.33;;;26.00;85.00;;;;;;5032954;28;20487;-71
2022/09/06 12:22:29;;;;;;;3.40;2.40;;;26.10;87.10;;;;;;5032292;28;20025;-71
2022/09/06 12:25:30;;;;;;;4.07;1.92;;;26.10;86.60;;;;;;5042480;28;20108;-71
2022/09/06 12:27:59;;;;;;;3.25;2.40;;;26.00;84.50;;;;;;5038610;28;20059;-72
2022/09/06 12:30:42;;;;;;;3.17;1.90;;;26.00;85.60;;;;;;5048745;28;20116;-72
2022/09/06 12:33:26;;;;;;;5.20;2.47;;;26.10;84.30;;;;;;5040855;28;20112;-71
2022/09/06 12:35:51;;;;;;;;;;;26.10;84.40;;;;;;5042346;28;20112;-71
2022/09/06 12:38:22;;;;;;;3.80;2.22;;;26.10;86.30;;;;;;5040589;28;19948;-71
2022/09/06 12:40:57;;;;;;;3.42;2.50;;;26.50;86.00;;;;;;5030697;28;20105;-71
2022/09/06 12:43:23;;;;;;;2.60;2.40;;;26.30;85.70;;;;;;5028232;28;20433;-71
2022/09/06 12:45:51;;;;;;;4.65;2.47;;;26.10;85.20;;;;;;5028062;28;20105;-71
2022/09/06 12:48:27;;;;;;;3.83;3.05;;;26.60;85.80;;;;;;5036357;28;20048;-71
2022/09/06 12:51:07;;;;;;;5.03;3.35;;;26.30;86.20;;;;;;5037369;28;20094;-71
2022/09/06 12:53:33;;;;;;;4.55;2.78;;;26.20;84.50;;;;;;5034401;28;20029;-71
2022/09/06 12:56:13;;;;;;;5.00;2.70;;;26.90;86.00;;;;;;5033343;28;20033;-72
2022/09/06 12:58:39;;;;;;;6.70;3.10;;;26.20;85.80;;;;;;5031209;28;20029;-71
2022/09/06 13:01:14;;;;;;;4.82;2.55;;;27.40;85.80;;;;;;5028361;28;20518;-71